CheckWX is a tool to help pilots better visualize weather data.  It is not intended as a substitute for an official pre-flight weather briefing.

18:34:06 UTC

FAKM METAR
Kimberley Airport
Kimberley, South Africa
Current

34 mins ago

FAKM 221800Z 02005KT CAVOK 28/11 Q1014
Observed
Feb-22 @ 18:00 UTC
Wind
  • 020° at 5 KTS
Visibility
10,000+ meters
Flight Rules
VFR
Cloud Levels
  • Clear skies
Temperature
28°C / 82°F
Dewpoint
11°C / 52°F
Humidity
35%
Altimeter
29.94" Hg
Pressure
1013.92 hPa
Previous

2 hours ago

FAKM 221700Z 35002KT CAVOK 31/10 Q1014
Observed
Feb-22 @ 17:00 UTC
Wind
  • 350° at 2 KTS
Visibility
10,000+ meters
Flight Rules
VFR
Cloud Levels
  • Clear skies
Temperature
31°C / 88°F
Dewpoint
10°C / 50°F
Humidity
27%
Altimeter
29.94" Hg
Pressure
1013.92 hPa
Previous

3 hours ago

FAKM 221600Z 27010KT CAVOK 36/06 Q1014
Observed
Feb-22 @ 16:00 UTC
Wind
  • 270° at 10 KTS
Visibility
10,000+ meters
Flight Rules
VFR
Cloud Levels
  • Clear skies
Temperature
36°C / 97°F
Dewpoint
C / 43°F
Humidity
16%
Altimeter
29.94" Hg
Pressure
1013.92 hPa